sensor_id;sensor_type;location;lat;lon;timestamp;temperature;humidity
53035;DHT22;38923;53.236;6.506;2022-09-09T00:01:02;15.80;99.90
53035;DHT22;38923;53.236;6.506;2022-09-09T00:04:03;15.70;99.90
53035;DHT22;38923;53.236;6.506;2022-09-09T00:06:44;15.70;99.90
53035;DHT22;38923;53.236;6.506;2022-09-09T00:09:13;15.70;99.90
53035;DHT22;38923;53.236;6.506;2022-09-09T00:11:48;15.70;99.90
53035;DHT22;38923;53.236;6.506;2022-09-09T00:14:54;15.70;99.90
53035;DHT22;38923;53.236;6.506;2022-09-09T00:17:43;15.70;99.90
53035;DHT22;38923;53.236;6.506;2022-09-09T00:23:28;15.60;99.90
53035;DHT22;38923;53.236;6.506;2022-09-09T00:28:31;15.50;99.90
53035;DHT22;38923;53.236;6.506;2022-09-09T00:31:08;15.60;99.90
53035;DHT22;38923;53.236;6.506;2022-09-09T00:33:36;15.50;99.90
53035;DHT22;38923;53.236;6.506;2022-09-09T00:36:12;15.50;99.90
53035;DHT22;38923;53.236;6.506;2022-09-09T00:38:52;15.50;99.90
53035;DHT22;38923;53.236;6.506;2022-09-09T00:44:23;15.50;99.90
53035;DHT22;38923;53.236;6.506;2022-09-09T00:49:51;15.50;99.90
53035;DHT22;38923;53.236;6.506;2022-09-09T00:57:35;15.40;99.90
53035;DHT22;38923;53.236;6.506;2022-09-09T01:00:22;15.40;99.90
53035;DHT22;38923;53.236;6.506;2022-09-09T01:11:49;15.30;99.90
53035;DHT22;38923;53.236;6.506;2022-09-09T01:17:46;15.30;99.90
53035;DHT22;38923;53.236;6.506;2022-09-09T01:20:34;15.20;99.90
53035;DHT22;38923;53.236;6.506;2022-09-09T01:28:48;15.20;99.90
53035;DHT22;38923;53.236;6.506;2022-09-09T01:31:20;15.10;99.90
53035;DHT22;38923;53.236;6.506;2022-09-09T01:33:47;15.10;99.90
53035;DHT22;38923;53.236;6.506;2022-09-09T01:36:15;15.10;99.90
53035;DHT22;38923;53.236;6.506;2022-09-09T01:38:43;15.00;99.90
53035;DHT22;38923;53.236;6.506;2022-09-09T01:41:09;15.00;99.90
53035;DHT22;38923;53.236;6.506;2022-09-09T01:43:34;15.00;99.90
53035;DHT22;38923;53.236;6.506;2022-09-09T01:46:01;14.90;99.90
53035;DHT22;38923;53.236;6.506;2022-09-09T01:48:28;14.90;99.90
53035;DHT22;38923;53.236;6.506;2022-09-09T01:50:54;14.90;99.90
53035;DHT22;38923;53.236;6.506;2022-09-09T01:53:21;14.90;99.90
53035;DHT22;38923;53.236;6.506;2022-09-09T01:58:58;14.90;99.90
53035;DHT22;38923;53.236;6.506;2022-09-09T02:04:41;14.90;99.90
53035;DHT22;38923;53.236;6.506;2022-09-09T02:09:57;14.80;99.90
53035;DHT22;38923;53.236;6.506;2022-09-09T02:12:25;14.80;99.90
53035;DHT22;38923;53.236;6.506;2022-09-09T02:14:59;14.80;99.90
53035;DHT22;38923;53.236;6.506;2022-09-09T02:17:29;14.80;99.90
53035;DHT22;38923;53.236;6.506;2022-09-09T02:20:08;14.80;99.90
53035;DHT22;38923;53.236;6.506;2022-09-09T02:22:37;14.90;99.90
53035;DHT22;38923;53.236;6.506;2022-09-09T02:25:07;14.80;99.90
53035;DHT22;38923;53.236;6.506;2022-09-09T02:27:34;14.80;99.90
53035;DHT22;38923;53.236;6.506;2022-09-09T02:30:03;14.80;99.90
53035;DHT22;38923;53.236;6.506;2022-09-09T02:32:31;14.80;99.90
53035;DHT22;38923;53.236;6.506;2022-09-09T02:35:03;14.80;99.90
53035;DHT22;38923;53.236;6.506;2022-09-09T02:37:37;14.90;99.90
53035;DHT22;38923;53.236;6.506;2022-09-09T02:40:09;14.90;99.90
53035;DHT22;38923;53.236;6.506;2022-09-09T02:42:43;14.90;99.90
53035;DHT22;38923;53.236;6.506;2022-09-09T02:45:11;14.90;99.90
53035;DHT22;38923;53.236;6.506;2022-09-09T02:47:39;14.90;99.90
53035;DHT22;38923;53.236;6.506;2022-09-09T02:50:26;14.90;99.90
53035;DHT22;38923;53.236;6.506;2022-09-09T02:55:31;14.90;99.90
53035;DHT22;38923;53.236;6.506;2022-09-09T02:57:59;14.90;99.90
53035;DHT22;38923;53.236;6.506;2022-09-09T03:00:26;14.90;99.90
53035;DHT22;38923;53.236;6.506;2022-09-09T03:02:54;14.90;99.90
53035;DHT22;38923;53.236;6.506;2022-09-09T03:05:20;14.90;99.90
53035;DHT22;38923;53.236;6.506;2022-09-09T03:07:46;14.90;99.90
53035;DHT22;38923;53.236;6.506;2022-09-09T03:10:12;14.90;99.90
53035;DHT22;38923;53.236;6.506;2022-09-09T03:12:39;14.90;99.90
53035;DHT22;38923;53.236;6.506;2022-09-09T03:15:05;15.00;99.90
53035;DHT22;38923;53.236;6.506;2022-09-09T03:17:31;15.00;99.90
53035;DHT22;38923;53.236;6.506;2022-09-09T03:19:57;15.00;99.90
53035;DHT22;38923;53.236;6.506;2022-09-09T03:22:24;15.00;99.90
53035;DHT22;38923;53.236;6.506;2022-09-09T03:24:51;15.00;99.90
53035;DHT22;38923;53.236;6.506;2022-09-09T03:27:17;15.00;99.90
53035;DHT22;38923;53.236;6.506;2022-09-09T03:29:45;15.00;99.90
53035;DHT22;38923;53.236;6.506;2022-09-09T03:32:11;15.00;99.90
53035;DHT22;38923;53.236;6.506;2022-09-09T03:34:38;15.00;99.90
53035;DHT22;38923;53.236;6.506;2022-09-09T03:37:06;15.10;99.90
53035;DHT22;38923;53.236;6.506;2022-09-09T03:39:32;15.10;99.90
53035;DHT22;38923;53.236;6.506;2022-09-09T03:41:57;15.10;99.90
53035;DHT22;38923;53.236;6.506;2022-09-09T03:44:23;15.10;99.90
53035;DHT22;38923;53.236;6.506;2022-09-09T03:46:49;15.10;99.90
53035;DHT22;38923;53.236;6.506;2022-09-09T03:49:14;15.10;99.90
53035;DHT22;38923;53.236;6.506;2022-09-09T03:51:41;15.10;99.90
53035;DHT22;38923;53.236;6.506;2022-09-09T03:54:07;15.10;99.90
53035;DHT22;38923;53.236;6.506;2022-09-09T03:56:34;15.10;99.90
53035;DHT22;38923;53.236;6.506;2022-09-09T03:59:00;15.10;99.90
53035;DHT22;38923;53.236;6.506;2022-09-09T04:01:26;15.10;99.90
53035;DHT22;38923;53.236;6.506;2022-09-09T04:03:52;15.10;99.90
53035;DHT22;38923;53.236;6.506;2022-09-09T04:06:18;15.10;99.90
53035;DHT22;38923;53.236;6.506;2022-09-09T04:08:45;15.10;99.90
53035;DHT22;38923;53.236;6.506;2022-09-09T04:11:14;15.20;99.90
53035;DHT22;38923;53.236;6.506;2022-09-09T04:13:41;15.20;99.90
53035;DHT22;38923;53.236;6.506;2022-09-09T04:16:09;15.20;99.90
53035;DHT22;38923;53.236;6.506;2022-09-09T04:18:35;15.20;99.90
53035;DHT22;38923;53.236;6.506;2022-09-09T04:21:02;15.20;99.90
53035;DHT22;38923;53.236;6.506;2022-09-09T04:23:29;15.20;99.90
53035;DHT22;38923;53.236;6.506;2022-09-09T04:25:56;15.20;99.90
53035;DHT22;38923;53.236;6.506;2022-09-09T04:28:24;15.20;99.90
53035;DHT22;38923;53.236;6.506;2022-09-09T04:30:50;15.20;99.90
53035;DHT22;38923;53.236;6.506;2022-09-09T04:33:16;15.20;99.90
53035;DHT22;38923;53.236;6.506;2022-09-09T04:35:46;15.30;99.90
53035;DHT22;38923;53.236;6.506;2022-09-09T04:38:13;15.20;99.90
53035;DHT22;38923;53.236;6.506;2022-09-09T04:40:43;15.20;99.90
53035;DHT22;38923;53.236;6.506;2022-09-09T04:43:09;15.20;99.90
53035;DHT22;38923;53.236;6.506;2022-09-09T04:45:35;15.20;99.90
53035;DHT22;38923;53.236;6.506;2022-09-09T04:48:01;15.20;99.90
53035;DHT22;38923;53.236;6.506;2022-09-09T04:50:28;15.20;99.90
53035;DHT22;38923;53.236;6.506;2022-09-09T04:52:54;15.20;99.90
53035;DHT22;38923;53.236;6.506;2022-09-09T04:55:19;15.20;99.90
53035;DHT22;38923;53.236;6.506;2022-09-09T04:57:45;15.20;99.90
53035;DHT22;38923;53.236;6.506;2022-09-09T05:00:12;15.20;99.90
53035;DHT22;38923;53.236;6.506;2022-09-09T05:02:39;15.20;99.90
53035;DHT22;38923;53.236;6.506;2022-09-09T05:05:06;15.20;99.90
53035;DHT22;38923;53.236;6.506;2022-09-09T05:07:32;15.20;99.90
53035;DHT22;38923;53.236;6.506;2022-09-09T05:09:58;15.20;99.90
53035;DHT22;38923;53.236;6.506;2022-09-09T05:12:24;15.20;99.90
53035;DHT22;38923;53.236;6.506;2022-09-09T05:14:51;15.20;99.90
53035;DHT22;38923;53.236;6.506;2022-09-09T05:17:17;15.20;99.90
53035;DHT22;38923;53.236;6.506;2022-09-09T05:19:43;15.20;99.90
53035;DHT22;38923;53.236;6.506;2022-09-09T05:22:10;15.20;99.90
53035;DHT22;38923;53.236;6.506;2022-09-09T05:24:37;15.20;99.90
53035;DHT22;38923;53.236;6.506;2022-09-09T05:27:04;15.20;99.90
53035;DHT22;38923;53.236;6.506;2022-09-09T05:29:31;15.20;99.90
53035;DHT22;38923;53.236;6.506;2022-09-09T05:31:59;15.20;99.90
53035;DHT22;38923;53.236;6.506;2022-09-09T05:34:25;15.20;99.90
53035;DHT22;38923;53.236;6.506;2022-09-09T05:36:51;15.20;99.90
53035;DHT22;38923;53.236;6.506;2022-09-09T05:39:17;15.20;99.90
53035;DHT22;38923;53.236;6.506;2022-09-09T05:41:43;15.20;99.90
53035;DHT22;38923;53.236;6.506;2022-09-09T05:44:09;15.20;99.90
53035;DHT22;38923;53.236;6.506;2022-09-09T05:46:35;15.20;99.90
53035;DHT22;38923;53.236;6.506;2022-09-09T05:49:02;15.20;99.90
53035;DHT22;38923;53.236;6.506;2022-09-09T05:51:29;15.20;99.90
53035;DHT22;38923;53.236;6.506;2022-09-09T05:53:58;15.20;99.90
53035;DHT22;38923;53.236;6.506;2022-09-09T05:56:28;15.20;99.90
53035;DHT22;38923;53.236;6.506;2022-09-09T05:58:55;15.20;99.90
53035;DHT22;38923;53.236;6.506;2022-09-09T06:01:26;15.20;99.90
53035;DHT22;38923;53.236;6.506;2022-09-09T06:03:53;15.20;99.90
53035;DHT22;38923;53.236;6.506;2022-09-09T06:06:20;15.20;99.90
53035;DHT22;38923;53.236;6.506;2022-09-09T06:08:47;15.20;99.90
53035;DHT22;38923;53.236;6.506;2022-09-09T06:11:21;15.20;99.90
53035;DHT22;38923;53.236;6.506;2022-09-09T06:13:48;15.20;99.90
53035;DHT22;38923;53.236;6.506;2022-09-09T06:16:18;15.20;99.90
53035;DHT22;38923;53.236;6.506;2022-09-09T06:18:44;15.20;99.90
53035;DHT22;38923;53.236;6.506;2022-09-09T06:21:18;15.20;99.90
53035;DHT22;38923;53.236;6.506;2022-09-09T06:23:45;15.30;99.90
53035;DHT22;38923;53.236;6.506;2022-09-09T06:26:13;15.20;99.90
53035;DHT22;38923;53.236;6.506;2022-09-09T06:28:39;15.30;99.90
53035;DHT22;38923;53.236;6.506;2022-09-09T06:31:07;15.30;99.90
53035;DHT22;38923;53.236;6.506;2022-09-09T06:33:35;15.30;99.90
53035;DHT22;38923;53.236;6.506;2022-09-09T06:36:02;15.30;99.90
53035;DHT22;38923;53.236;6.506;2022-09-09T06:38:29;15.30;99.90
53035;DHT22;38923;53.236;6.506;2022-09-09T06:40:57;15.30;99.90
53035;DHT22;38923;53.236;6.506;2022-09-09T06:43:23;15.30;99.90
53035;DHT22;38923;53.236;6.506;2022-09-09T06:46:00;15.30;99.90
53035;DHT22;38923;53.236;6.506;2022-09-09T06:48:27;15.30;99.90
53035;DHT22;38923;53.236;6.506;2022-09-09T06:51:05;15.30;99.90
53035;DHT22;38923;53.236;6.506;2022-09-09T06:53:32;15.30;99.90
53035;DHT22;38923;53.236;6.506;2022-09-09T06:58:49;15.30;99.90
53035;DHT22;38923;53.236;6.506;2022-09-09T07:01:16;15.40;99.90
53035;DHT22;38923;53.236;6.506;2022-09-09T07:03:46;15.40;99.90
53035;DHT22;38923;53.236;6.506;2022-09-09T07:06:19;15.40;99.90
53035;DHT22;38923;53.236;6.506;2022-09-09T07:08:49;15.40;99.90
53035;DHT22;38923;53.236;6.506;2022-09-09T07:11:16;15.40;99.90
53035;DHT22;38923;53.236;6.506;2022-09-09T07:13:41;15.40;99.90
53035;DHT22;38923;53.236;6.506;2022-09-09T07:16:15;15.40;99.90
53035;DHT22;38923;53.236;6.506;2022-09-09T07:18:41;15.40;99.90
53035;DHT22;38923;53.236;6.506;2022-09-09T07:21:08;15.40;99.90
53035;DHT22;38923;53.236;6.506;2022-09-09T07:23:34;15.40;99.90
53035;DHT22;38923;53.236;6.506;2022-09-09T07:26:12;15.40;99.90
53035;DHT22;38923;53.236;6.506;2022-09-09T07:28:39;15.50;99.90
53035;DHT22;38923;53.236;6.506;2022-09-09T07:31:06;15.40;99.90
53035;DHT22;38923;53.236;6.506;2022-09-09T07:33:34;15.40;99.90
53035;DHT22;38923;53.236;6.506;2022-09-09T07:36:12;15.50;99.90
53035;DHT22;38923;53.236;6.506;2022-09-09T07:38:43;15.50;99.90
53035;DHT22;38923;53.236;6.506;2022-09-09T07:41:13;15.50;99.90
53035;DHT22;38923;53.236;6.506;2022-09-09T07:43:44;15.50;99.90
53035;DHT22;38923;53.236;6.506;2022-09-09T07:46:11;15.50;99.90
53035;DHT22;38923;53.236;6.506;2022-09-09T07:48:39;15.50;99.90
53035;DHT22;38923;53.236;6.506;2022-09-09T07:51:16;15.60;99.90
53035;DHT22;38923;53.236;6.506;2022-09-09T07:53:51;15.60;99.90
53035;DHT22;38923;53.236;6.506;2022-09-09T07:56:17;15.70;99.90
53035;DHT22;38923;53.236;6.506;2022-09-09T07:58:51;15.70;99.90
53035;DHT22;38923;53.236;6.506;2022-09-09T08:01:23;15.80;99.90
53035;DHT22;38923;53.236;6.506;2022-09-09T08:04:01;15.80;99.90
53035;DHT22;38923;53.236;6.506;2022-09-09T08:06:29;15.80;99.90
53035;DHT22;38923;53.236;6.506;2022-09-09T08:08:55;15.80;99.90
53035;DHT22;38923;53.236;6.506;2022-09-09T08:11:22;15.90;99.90
53035;DHT22;38923;53.236;6.506;2022-09-09T08:13:49;15.90;99.90
53035;DHT22;38923;53.236;6.506;2022-09-09T08:16:18;15.90;99.90
53035;DHT22;38923;53.236;6.506;2022-09-09T08:18:44;16.00;99.90
53035;DHT22;38923;53.236;6.506;2022-09-09T08:21:15;16.00;99.90
53035;DHT22;38923;53.236;6.506;2022-09-09T08:23:44;16.00;99.90
53035;DHT22;38923;53.236;6.506;2022-09-09T08:26:14;16.10;99.90
53035;DHT22;38923;53.236;6.506;2022-09-09T08:28:41;16.10;99.90
53035;DHT22;38923;53.236;6.506;2022-09-09T08:31:10;16.20;99.90
53035;DHT22;38923;53.236;6.506;2022-09-09T08:33:37;16.20;99.90
53035;DHT22;38923;53.236;6.506;2022-09-09T08:36:05;16.20;99.90
53035;DHT22;38923;53.236;6.506;2022-09-09T08:38:31;16.20;99.90
53035;DHT22;38923;53.236;6.506;2022-09-09T08:41:07;16.20;99.90
53035;DHT22;38923;53.236;6.506;2022-09-09T08:43:38;16.30;99.90
53035;DHT22;38923;53.236;6.506;2022-09-09T08:46:32;16.30;99.90
53035;DHT22;38923;53.236;6.506;2022-09-09T08:51:47;16.50;99.90
53035;DHT22;38923;53.236;6.506;2022-09-09T08:54:15;16.50;99.90
53035;DHT22;38923;53.236;6.506;2022-09-09T08:56:41;16.50;99.90
53035;DHT22;38923;53.236;6.506;2022-09-09T08:59:10;16.50;99.90
53035;DHT22;38923;53.236;6.506;2022-09-09T09:09:57;16.60;99.90
53035;DHT22;38923;53.236;6.506;2022-09-09T09:12:28;16.60;99.90
53035;DHT22;38923;53.236;6.506;2022-09-09T09:14:55;16.70;99.90
53035;DHT22;38923;53.236;6.506;2022-09-09T09:17:25;16.70;99.90
53035;DHT22;38923;53.236;6.506;2022-09-09T09:19:53;16.70;99.90
53035;DHT22;38923;53.236;6.506;2022-09-09T09:25:16;16.80;99.90
53035;DHT22;38923;53.236;6.506;2022-09-09T09:31:11;16.80;99.90
53035;DHT22;38923;53.236;6.506;2022-09-09T09:36:09;16.90;99.90
53035;DHT22;38923;53.236;6.506;2022-09-09T09:38:36;17.00;99.90
53035;DHT22;38923;53.236;6.506;2022-09-09T09:41:02;17.10;99.90
53035;DHT22;38923;53.236;6.506;2022-09-09T09:43:30;17.30;99.90
53035;DHT22;38923;53.236;6.506;2022-09-09T09:45:57;17.30;99.90
53035;DHT22;38923;53.236;6.506;2022-09-09T09:48:23;17.40;99.90
53035;DHT22;38923;53.236;6.506;2022-09-09T09:50:52;17.50;99.90
53035;DHT22;38923;53.236;6.506;2022-09-09T09:53:24;17.60;99.90
53035;DHT22;38923;53.236;6.506;2022-09-09T09:58:30;17.70;99.90
53035;DHT22;38923;53.236;6.506;2022-09-09T10:00:59;17.70;99.90
53035;DHT22;38923;53.236;6.506;2022-09-09T10:03:30;17.70;99.90
53035;DHT22;38923;53.236;6.506;2022-09-09T10:05:56;17.80;99.90
53035;DHT22;38923;53.236;6.506;2022-09-09T10:08:24;17.80;99.90
53035;DHT22;38923;53.236;6.506;2022-09-09T10:16:25;17.90;99.90
53035;DHT22;38923;53.236;6.506;2022-09-09T10:19:01;17.90;99.90
53035;DHT22;38923;53.236;6.506;2022-09-09T10:21:52;17.90;99.90
53035;DHT22;38923;53.236;6.506;2022-09-09T10:24:54;17.90;99.90
53035;DHT22;38923;53.236;6.506;2022-09-09T10:30:16;18.00;99.90
53035;DHT22;38923;53.236;6.506;2022-09-09T10:32:59;18.00;99.90
53035;DHT22;38923;53.236;6.506;2022-09-09T10:35:40;18.00;99.90
53035;DHT22;38923;53.236;6.506;2022-09-09T10:41:23;18.00;99.90
53035;DHT22;38923;53.236;6.506;2022-09-09T10:52:48;18.30;99.90
53035;DHT22;38923;53.236;6.506;2022-09-09T10:55:17;18.40;99.90
53035;DHT22;38923;53.236;6.506;2022-09-09T10:57:48;18.40;99.90
53035;DHT22;38923;53.236;6.506;2022-09-09T11:00:23;18.40;99.90
53035;DHT22;38923;53.236;6.506;2022-09-09T11:03:03;18.50;99.90
53035;DHT22;38923;53.236;6.506;2022-09-09T11:08:06;18.50;99.90
53035;DHT22;38923;53.236;6.506;2022-09-09T11:19:41;18.60;99.90
53035;DHT22;38923;53.236;6.506;2022-09-09T11:24:58;18.60;99.90
53035;DHT22;38923;53.236;6.506;2022-09-09T11:27:26;18.60;99.90
53035;DHT22;38923;53.236;6.506;2022-09-09T11:38:37;18.90;99.90
53035;DHT22;38923;53.236;6.506;2022-09-09T11:41:06;19.00;99.90
53035;DHT22;38923;53.236;6.506;2022-09-09T11:43:40;19.00;99.90
53035;DHT22;38923;53.236;6.506;2022-09-09T11:46:07;19.20;99.90
53035;DHT22;38923;53.236;6.506;2022-09-09T11:48:45;19.20;99.90
53035;DHT22;38923;53.236;6.506;2022-09-09T11:53:57;19.20;99.90
53035;DHT22;38923;53.236;6.506;2022-09-09T11:56:42;19.30;99.90
53035;DHT22;38923;53.236;6.506;2022-09-09T11:59:21;19.30;99.90
53035;DHT22;38923;53.236;6.506;2022-09-09T12:02:02;19.30;99.90
53035;DHT22;38923;53.236;6.506;2022-09-09T12:04:37;19.30;99.90
53035;DHT22;38923;53.236;6.506;2022-09-09T12:07:32;19.30;99.90
53035;DHT22;38923;53.236;6.506;2022-09-09T12:10:04;19.40;99.90
53035;DHT22;38923;53.236;6.506;2022-09-09T12:12:37;19.40;99.90
53035;DHT22;38923;53.236;6.506;2022-09-09T12:17:50;19.40;99.90
53035;DHT22;38923;53.236;6.506;2022-09-09T12:20:23;19.40;99.90
53035;DHT22;38923;53.236;6.506;2022-09-09T12:22:58;19.40;99.90
53035;DHT22;38923;53.236;6.506;2022-09-09T12:33:37;19.40;99.90
53035;DHT22;38923;53.236;6.506;2022-09-09T12:36:12;19.40;99.90
53035;DHT22;38923;53.236;6.506;2022-09-09T12:38:40;19.40;99.90
53035;DHT22;38923;53.236;6.506;2022-09-09T12:41:15;19.30;99.90
53035;DHT22;38923;53.236;6.506;2022-09-09T12:43:45;19.30;99.90
53035;DHT22;38923;53.236;6.506;2022-09-09T12:49:01;19.20;99.90
53035;DHT22;38923;53.236;6.506;2022-09-09T12:51:32;19.20;99.90
53035;DHT22;38923;53.236;6.506;2022-09-09T12:53:59;19.30;99.90
53035;DHT22;38923;53.236;6.506;2022-09-09T12:56:28;19.30;99.90
53035;DHT22;38923;53.236;6.506;2022-09-09T12:58:56;19.30;99.90
53035;DHT22;38923;53.236;6.506;2022-09-09T13:01:31;19.40;99.90
53035;DHT22;38923;53.236;6.506;2022-09-09T13:03:59;19.40;99.90
53035;DHT22;38923;53.236;6.506;2022-09-09T13:06:27;19.50;99.90
53035;DHT22;38923;53.236;6.506;2022-09-09T13:08:55;19.50;99.90
53035;DHT22;38923;53.236;6.506;2022-09-09T13:11:41;19.50;99.90
53035;DHT22;38923;53.236;6.506;2022-09-09T13:14:29;19.50;99.90
53035;DHT22;38923;53.236;6.506;2022-09-09T13:17:02;19.50;99.90
53035;DHT22;38923;53.236;6.506;2022-09-09T13:19:35;19.60;99.90
53035;DHT22;38923;53.236;6.506;2022-09-09T13:27:41;19.60;99.90
53035;DHT22;38923;53.236;6.506;2022-09-09T13:30:31;19.60;99.90
53035;DHT22;38923;53.236;6.506;2022-09-09T13:33:21;19.60;99.90
53035;DHT22;38923;53.236;6.506;2022-09-09T13:35:55;19.70;99.90
53035;DHT22;38923;53.236;6.506;2022-09-09T13:38:22;19.70;99.90
53035;DHT22;38923;53.236;6.506;2022-09-09T13:40:58;19.60;99.90
53035;DHT22;38923;53.236;6.506;2022-09-09T13:43:27;19.60;99.90
53035;DHT22;38923;53.236;6.506;2022-09-09T13:46:01;19.60;99.90
53035;DHT22;38923;53.236;6.506;2022-09-09T13:48:28;19.50;99.90
53035;DHT22;38923;53.236;6.506;2022-09-09T13:51:04;19.50;99.90
53035;DHT22;38923;53.236;6.506;2022-09-09T13:53:31;19.50;99.90
53035;DHT22;38923;53.236;6.506;2022-09-09T13:55:57;19.50;99.90
53035;DHT22;38923;53.236;6.506;2022-09-09T13:58:24;19.40;99.90
53035;DHT22;38923;53.236;6.506;2022-09-09T14:00:52;19.50;99.90
53035;DHT22;38923;53.236;6.506;2022-09-09T14:03:21;19.40;99.90
53035;DHT22;38923;53.236;6.506;2022-09-09T14:05:53;19.30;99.90
53035;DHT22;38923;53.236;6.506;2022-09-09T14:08:24;19.30;99.90
53035;DHT22;38923;53.236;6.506;2022-09-09T14:10:51;19.30;99.90
53035;DHT22;38923;53.236;6.506;2022-09-09T14:13:17;19.30;99.90
53035;DHT22;38923;53.236;6.506;2022-09-09T14:15:43;19.30;99.90
53035;DHT22;38923;53.236;6.506;2022-09-09T14:18:11;19.40;99.90
53035;DHT22;38923;53.236;6.506;2022-09-09T14:23:13;19.50;99.90
53035;DHT22;38923;53.236;6.506;2022-09-09T14:25:42;19.60;99.90
53035;DHT22;38923;53.236;6.506;2022-09-09T14:28:12;19.60;99.90
53035;DHT22;38923;53.236;6.506;2022-09-09T14:30:40;19.60;99.90
53035;DHT22;38923;53.236;6.506;2022-09-09T14:33:07;19.60;99.90
53035;DHT22;38923;53.236;6.506;2022-09-09T14:35:33;19.50;99.90
53035;DHT22;38923;53.236;6.506;2022-09-09T14:37:59;19.50;99.90
53035;DHT22;38923;53.236;6.506;2022-09-09T14:40:26;19.40;99.90
53035;DHT22;38923;53.236;6.506;2022-09-09T14:42:53;19.30;99.90
53035;DHT22;38923;53.236;6.506;2022-09-09T14:45:18;19.20;99.90
53035;DHT22;38923;53.236;6.506;2022-09-09T14:47:44;19.20;99.90
53035;DHT22;38923;53.236;6.506;2022-09-09T14:50:10;19.20;99.90
53035;DHT22;38923;53.236;6.506;2022-09-09T14:52:38;19.10;99.90
53035;DHT22;38923;53.236;6.506;2022-09-09T14:55:04;19.10;99.90
53035;DHT22;38923;53.236;6.506;2022-09-09T14:57:30;19.10;99.90
53035;DHT22;38923;53.236;6.506;2022-09-09T14:59:56;19.10;99.90
53035;DHT22;38923;53.236;6.506;2022-09-09T15:02:22;19.00;99.90
53035;DHT22;38923;53.236;6.506;2022-09-09T15:04:48;19.00;99.90
53035;DHT22;38923;53.236;6.506;2022-09-09T15:07:16;18.90;99.90
53035;DHT22;38923;53.236;6.506;2022-09-09T15:09:44;18.80;99.90
53035;DHT22;38923;53.236;6.506;2022-09-09T15:12:10;18.10;99.90
53035;DHT22;38923;53.236;6.506;2022-09-09T15:14:36;18.80;99.90
53035;DHT22;38923;53.236;6.506;2022-09-09T15:17:03;18.80;99.90
53035;DHT22;38923;53.236;6.506;2022-09-09T15:19:29;18.70;99.90
53035;DHT22;38923;53.236;6.506;2022-09-09T15:21:55;18.80;99.90
53035;DHT22;38923;53.236;6.506;2022-09-09T15:24:21;18.90;99.90
53035;DHT22;38923;53.236;6.506;2022-09-09T15:26:46;19.00;99.90
53035;DHT22;38923;53.236;6.506;2022-09-09T15:29:12;19.10;99.90
53035;DHT22;38923;53.236;6.506;2022-09-09T15:31:38;19.10;99.90
53035;DHT22;38923;53.236;6.506;2022-09-09T15:34:06;19.10;99.90
53035;DHT22;38923;53.236;6.506;2022-09-09T15:36:37;19.10;99.90
53035;DHT22;38923;53.236;6.506;2022-09-09T15:39:07;19.10;99.90
53035;DHT22;38923;53.236;6.506;2022-09-09T15:41:33;19.20;99.90
53035;DHT22;38923;53.236;6.506;2022-09-09T15:44:00;19.30;99.90
53035;DHT22;38923;53.236;6.506;2022-09-09T15:46:37;19.30;99.90
53035;DHT22;38923;53.236;6.506;2022-09-09T15:51:40;19.20;99.90
53035;DHT22;38923;53.236;6.506;2022-09-09T15:54:06;19.10;99.90
53035;DHT22;38923;53.236;6.506;2022-09-09T15:56:32;19.10;99.90
53035;DHT22;38923;53.236;6.506;2022-09-09T15:58:59;19.10;99.90
53035;DHT22;38923;53.236;6.506;2022-09-09T16:01:26;19.20;99.90
53035;DHT22;38923;53.236;6.506;2022-09-09T16:03:53;19.10;99.90
53035;DHT22;38923;53.236;6.506;2022-09-09T16:06:20;19.20;99.90
53035;DHT22;38923;53.236;6.506;2022-09-09T16:08:48;19.10;99.90
53035;DHT22;38923;53.236;6.506;2022-09-09T16:11:31;19.10;99.90
53035;DHT22;38923;53.236;6.506;2022-09-09T16:13:58;19.10;99.90
53035;DHT22;38923;53.236;6.506;2022-09-09T16:16:27;19.10;99.90
53035;DHT22;38923;53.236;6.506;2022-09-09T16:18:56;19.10;99.90
53035;DHT22;38923;53.236;6.506;2022-09-09T16:21:24;19.10;99.90
53035;DHT22;38923;53.236;6.506;2022-09-09T16:31:24;19.00;99.90
53035;DHT22;38923;53.236;6.506;2022-09-09T16:33:50;18.90;99.90
53035;DHT22;38923;53.236;6.506;2022-09-09T16:36:25;18.90;99.90
53035;DHT22;38923;53.236;6.506;2022-09-09T16:38:56;18.90;99.90
53035;DHT22;38923;53.236;6.506;2022-09-09T16:41:27;18.90;99.90
53035;DHT22;38923;53.236;6.506;2022-09-09T16:43:58;18.80;99.90
53035;DHT22;38923;53.236;6.506;2022-09-09T16:46:25;18.80;99.90
53035;DHT22;38923;53.236;6.506;2022-09-09T16:48:53;18.80;99.90
53035;DHT22;38923;53.236;6.506;2022-09-09T16:51:25;18.70;99.90
53035;DHT22;38923;53.236;6.506;2022-09-09T16:53:53;18.70;99.90
53035;DHT22;38923;53.236;6.506;2022-09-09T16:56:21;18.70;99.90
53035;DHT22;38923;53.236;6.506;2022-09-09T16:58:52;18.70;99.90
53035;DHT22;38923;53.236;6.506;2022-09-09T17:01:19;18.60;99.90
53035;DHT22;38923;53.236;6.506;2022-09-09T17:03:45;18.60;99.90
53035;DHT22;38923;53.236;6.506;2022-09-09T17:10:16;18.40;99.90
53035;DHT22;38923;53.236;6.506;2022-09-09T17:12:42;18.40;99.90
53035;DHT22;38923;53.236;6.506;2022-09-09T17:15:08;18.40;99.90
53035;DHT22;38923;53.236;6.506;2022-09-09T17:17:34;18.30;99.90
53035;DHT22;38923;53.236;6.506;2022-09-09T17:20:00;18.30;99.90
53035;DHT22;38923;53.236;6.506;2022-09-09T17:22:27;18.30;99.90
53035;DHT22;38923;53.236;6.506;2022-09-09T17:24:54;18.20;99.90
53035;DHT22;38923;53.236;6.506;2022-09-09T17:27:20;18.10;99.90
53035;DHT22;38923;53.236;6.506;2022-09-09T17:29:47;18.10;99.90
53035;DHT22;38923;53.236;6.506;2022-09-09T17:32:13;18.00;99.90
53035;DHT22;38923;53.236;6.506;2022-09-09T17:34:39;18.00;99.90
53035;DHT22;38923;53.236;6.506;2022-09-09T17:37:04;17.90;99.90
53035;DHT22;38923;53.236;6.506;2022-09-09T17:39:32;17.90;99.90
53035;DHT22;38923;53.236;6.506;2022-09-09T17:41:58;17.90;99.90
53035;DHT22;38923;53.236;6.506;2022-09-09T17:44:23;17.90;99.90
53035;DHT22;38923;53.236;6.506;2022-09-09T17:46:49;17.90;99.90
53035;DHT22;38923;53.236;6.506;2022-09-09T17:49:16;17.90;99.90
53035;DHT22;38923;53.236;6.506;2022-09-09T17:51:44;17.80;99.90
53035;DHT22;38923;53.236;6.506;2022-09-09T17:54:16;17.80;99.90
53035;DHT22;38923;53.236;6.506;2022-09-09T17:56:42;17.80;99.90
53035;DHT22;38923;53.236;6.506;2022-09-09T17:59:11;17.80;99.90
53035;DHT22;38923;53.236;6.506;2022-09-09T18:01:40;17.80;99.90
53035;DHT22;38923;53.236;6.506;2022-09-09T18:04:08;17.80;99.90
53035;DHT22;38923;53.236;6.506;2022-09-09T18:06:39;17.80;99.90
53035;DHT22;38923;53.236;6.506;2022-09-09T18:09:13;17.80;99.90
53035;DHT22;38923;53.236;6.506;2022-09-09T18:11:42;17.80;99.90
53035;DHT22;38923;53.236;6.506;2022-09-09T18:14:15;17.80;99.90
53035;DHT22;38923;53.236;6.506;2022-09-09T18:16:43;17.80;99.90
53035;DHT22;38923;53.236;6.506;2022-09-09T18:19:11;17.80;99.90